Terminal Aerodrome Forecast
Issued by NWS

Home | Current Version | Previous Version | Text Only | Print | Product List | Glossary On
Versions: 1 2 3 4 5 6 7 8 9 10 11 12 13 14 15 16 17 18
000
FTUS41 KBTV 292334
TAFRUT
TAF
KRUT 292334Z 3000/3024 VRB04KT P6SM SKC
     FM300400 15010KT P6SM BKN150
     FM300700 16009KT P6SM BKN150 WS020/21040KT
     FM301000 17011G20KT 4SM -SHSN BR OVC040
     FM301500 18012G25KT 6SM -SHRA BR OVC025
     FM302000 24010G20KT P6SM VCSH OVC025
      AMD LTD TO CLD VIS AND WIND=

USA.gov is the U.S. government's official web portal to all federal, state and local government web resources and services.